sensor_id;sensor_type;location;lat;lon;timestamp;temperature;humidity
43858;DHT22;29507;51.284;5.758;2023-08-07T00:00:40;12.60;99.90
43858;DHT22;29507;51.284;5.758;2023-08-07T00:03:05;12.60;99.90
43858;DHT22;29507;51.284;5.758;2023-08-07T00:05:31;12.60;99.90
43858;DHT22;29507;51.284;5.758;2023-08-07T00:07:56;12.60;99.90
43858;DHT22;29507;51.284;5.758;2023-08-07T00:10:22;12.60;99.90
43858;DHT22;29507;51.284;5.758;2023-08-07T00:12:48;12.60;99.90
43858;DHT22;29507;51.284;5.758;2023-08-07T00:15:13;12.50;99.90
43858;DHT22;29507;51.284;5.758;2023-08-07T00:17:39;12.60;99.90
43858;DHT22;29507;51.284;5.758;2023-08-07T00:20:06;12.60;99.90
43858;DHT22;29507;51.284;5.758;2023-08-07T00:22:33;12.60;99.90
43858;DHT22;29507;51.284;5.758;2023-08-07T00:24:58;12.60;99.90
43858;DHT22;29507;51.284;5.758;2023-08-07T00:27:24;12.60;99.90
43858;DHT22;29507;51.284;5.758;2023-08-07T00:29:50;12.70;99.90
43858;DHT22;29507;51.284;5.758;2023-08-07T00:32:15;12.70;99.90
43858;DHT22;29507;51.284;5.758;2023-08-07T00:34:41;12.70;99.90
43858;DHT22;29507;51.284;5.758;2023-08-07T00:37:06;12.70;99.90
43858;DHT22;29507;51.284;5.758;2023-08-07T00:39:32;12.70;99.90
43858;DHT22;29507;51.284;5.758;2023-08-07T00:41:57;12.70;99.90
43858;DHT22;29507;51.284;5.758;2023-08-07T00:44:23;12.70;99.90
43858;DHT22;29507;51.284;5.758;2023-08-07T00:46:49;12.70;99.90
43858;DHT22;29507;51.284;5.758;2023-08-07T00:49:16;12.70;99.90
43858;DHT22;29507;51.284;5.758;2023-08-07T00:51:43;12.80;99.90
43858;DHT22;29507;51.284;5.758;2023-08-07T00:54:10;12.90;99.90
43858;DHT22;29507;51.284;5.758;2023-08-07T00:56:37;12.90;99.90
43858;DHT22;29507;51.284;5.758;2023-08-07T00:59:03;12.90;99.90
43858;DHT22;29507;51.284;5.758;2023-08-07T01:01:28;12.90;99.90
43858;DHT22;29507;51.284;5.758;2023-08-07T01:03:54;13.00;99.90
43858;DHT22;29507;51.284;5.758;2023-08-07T01:06:20;13.00;99.90
43858;DHT22;29507;51.284;5.758;2023-08-07T01:08:46;13.00;99.90
43858;DHT22;29507;51.284;5.758;2023-08-07T01:11:39;13.00;99.90
43858;DHT22;29507;51.284;5.758;2023-08-07T01:14:19;13.10;99.90
43858;DHT22;29507;51.284;5.758;2023-08-07T01:17:02;13.10;99.90
43858;DHT22;29507;51.284;5.758;2023-08-07T01:19:31;13.10;99.90
43858;DHT22;29507;51.284;5.758;2023-08-07T01:22:08;13.00;99.90
43858;DHT22;29507;51.284;5.758;2023-08-07T01:24:35;12.90;99.90
43858;DHT22;29507;51.284;5.758;2023-08-07T01:35:22;13.00;99.90
43858;DHT22;29507;51.284;5.758;2023-08-07T01:37:52;12.90;99.90
43858;DHT22;29507;51.284;5.758;2023-08-07T01:40:20;13.00;99.90
43858;DHT22;29507;51.284;5.758;2023-08-07T01:42:46;13.00;99.90
43858;DHT22;29507;51.284;5.758;2023-08-07T01:45:13;13.00;99.90
43858;DHT22;29507;51.284;5.758;2023-08-07T01:47:38;13.00;99.90
43858;DHT22;29507;51.284;5.758;2023-08-07T01:50:05;12.90;99.90
43858;DHT22;29507;51.284;5.758;2023-08-07T01:52:30;13.00;99.90
43858;DHT22;29507;51.284;5.758;2023-08-07T01:54:56;13.00;99.90
43858;DHT22;29507;51.284;5.758;2023-08-07T01:57:22;13.00;99.90
43858;DHT22;29507;51.284;5.758;2023-08-07T01:59:47;12.90;99.90
43858;DHT22;29507;51.284;5.758;2023-08-07T02:02:13;13.00;99.90
43858;DHT22;29507;51.284;5.758;2023-08-07T02:04:39;13.00;99.90
43858;DHT22;29507;51.284;5.758;2023-08-07T02:07:04;12.90;99.90
43858;DHT22;29507;51.284;5.758;2023-08-07T02:09:30;12.90;99.90
43858;DHT22;29507;51.284;5.758;2023-08-07T02:11:55;12.90;99.90
43858;DHT22;29507;51.284;5.758;2023-08-07T02:14:21;12.90;99.90
43858;DHT22;29507;51.284;5.758;2023-08-07T02:16:47;12.80;99.90
43858;DHT22;29507;51.284;5.758;2023-08-07T02:19:12;12.80;99.90
43858;DHT22;29507;51.284;5.758;2023-08-07T02:21:38;12.70;99.90
43858;DHT22;29507;51.284;5.758;2023-08-07T02:24:04;12.70;99.90
43858;DHT22;29507;51.284;5.758;2023-08-07T02:26:29;12.70;99.90
43858;DHT22;29507;51.284;5.758;2023-08-07T02:28:55;12.50;99.90
43858;DHT22;29507;51.284;5.758;2023-08-07T02:31:21;12.30;99.90
43858;DHT22;29507;51.284;5.758;2023-08-07T02:33:46;12.20;99.90
43858;DHT22;29507;51.284;5.758;2023-08-07T02:36:12;12.00;99.90
43858;DHT22;29507;51.284;5.758;2023-08-07T02:38:38;11.90;99.90
43858;DHT22;29507;51.284;5.758;2023-08-07T02:41:03;11.90;99.90
43858;DHT22;29507;51.284;5.758;2023-08-07T02:43:29;11.90;99.90
43858;DHT22;29507;51.284;5.758;2023-08-07T02:45:54;11.80;99.90
43858;DHT22;29507;51.284;5.758;2023-08-07T02:48:20;11.80;99.90
43858;DHT22;29507;51.284;5.758;2023-08-07T02:50:46;11.80;99.90
43858;DHT22;29507;51.284;5.758;2023-08-07T02:53:12;11.80;99.90
43858;DHT22;29507;51.284;5.758;2023-08-07T02:55:37;11.90;99.90
43858;DHT22;29507;51.284;5.758;2023-08-07T02:58:03;11.90;99.90
43858;DHT22;29507;51.284;5.758;2023-08-07T03:00:28;11.90;99.90
43858;DHT22;29507;51.284;5.758;2023-08-07T03:02:54;11.90;99.90
43858;DHT22;29507;51.284;5.758;2023-08-07T03:05:19;11.80;99.90
43858;DHT22;29507;51.284;5.758;2023-08-07T03:07:45;11.80;99.90
43858;DHT22;29507;51.284;5.758;2023-08-07T03:10:11;11.80;99.90
43858;DHT22;29507;51.284;5.758;2023-08-07T03:12:37;11.80;99.90
43858;DHT22;29507;51.284;5.758;2023-08-07T03:15:05;11.80;99.90
43858;DHT22;29507;51.284;5.758;2023-08-07T03:17:30;11.80;99.90
43858;DHT22;29507;51.284;5.758;2023-08-07T03:19:56;11.90;99.90
43858;DHT22;29507;51.284;5.758;2023-08-07T03:22:22;11.90;99.90
43858;DHT22;29507;51.284;5.758;2023-08-07T03:24:48;11.90;99.90
43858;DHT22;29507;51.284;5.758;2023-08-07T03:27:14;12.00;99.90
43858;DHT22;29507;51.284;5.758;2023-08-07T03:29:39;12.00;99.90
43858;DHT22;29507;51.284;5.758;2023-08-07T03:32:05;12.00;99.90
43858;DHT22;29507;51.284;5.758;2023-08-07T03:34:31;12.10;99.90
43858;DHT22;29507;51.284;5.758;2023-08-07T03:36:56;12.20;99.90
43858;DHT22;29507;51.284;5.758;2023-08-07T03:39:24;12.20;99.90
43858;DHT22;29507;51.284;5.758;2023-08-07T03:41:50;12.20;99.90
43858;DHT22;29507;51.284;5.758;2023-08-07T03:44:16;12.30;99.90
43858;DHT22;29507;51.284;5.758;2023-08-07T03:46:41;12.40;99.90
43858;DHT22;29507;51.284;5.758;2023-08-07T03:49:07;12.50;99.90
43858;DHT22;29507;51.284;5.758;2023-08-07T03:51:33;12.50;99.90
43858;DHT22;29507;51.284;5.758;2023-08-07T03:53:58;12.50;99.90
43858;DHT22;29507;51.284;5.758;2023-08-07T03:56:24;12.60;99.90
43858;DHT22;29507;51.284;5.758;2023-08-07T03:58:50;12.60;99.90
43858;DHT22;29507;51.284;5.758;2023-08-07T04:01:16;12.60;99.90
43858;DHT22;29507;51.284;5.758;2023-08-07T04:03:41;12.70;99.90
43858;DHT22;29507;51.284;5.758;2023-08-07T04:06:07;12.70;99.90
43858;DHT22;29507;51.284;5.758;2023-08-07T04:08:33;12.80;99.90
43858;DHT22;29507;51.284;5.758;2023-08-07T04:11:05;12.70;99.90
43858;DHT22;29507;51.284;5.758;2023-08-07T04:13:31;12.70;99.90
43858;DHT22;29507;51.284;5.758;2023-08-07T04:15:57;12.70;99.90
43858;DHT22;29507;51.284;5.758;2023-08-07T04:18:23;12.70;99.90
43858;DHT22;29507;51.284;5.758;2023-08-07T04:20:56;12.80;99.90
43858;DHT22;29507;51.284;5.758;2023-08-07T04:23:23;12.80;99.90
43858;DHT22;29507;51.284;5.758;2023-08-07T04:25:49;12.80;99.90
43858;DHT22;29507;51.284;5.758;2023-08-07T04:28:15;12.80;99.90
43858;DHT22;29507;51.284;5.758;2023-08-07T04:30:41;12.90;99.90
43858;DHT22;29507;51.284;5.758;2023-08-07T04:33:07;12.90;99.90
43858;DHT22;29507;51.284;5.758;2023-08-07T04:35:33;12.90;99.90
43858;DHT22;29507;51.284;5.758;2023-08-07T04:38:00;12.90;99.90
43858;DHT22;29507;51.284;5.758;2023-08-07T04:40:26;12.90;99.90
43858;DHT22;29507;51.284;5.758;2023-08-07T04:42:52;12.90;99.90
43858;DHT22;29507;51.284;5.758;2023-08-07T04:45:17;12.90;99.90
43858;DHT22;29507;51.284;5.758;2023-08-07T04:47:43;13.00;99.90
43858;DHT22;29507;51.284;5.758;2023-08-07T04:50:09;13.00;99.90
43858;DHT22;29507;51.284;5.758;2023-08-07T04:52:35;13.10;99.90
43858;DHT22;29507;51.284;5.758;2023-08-07T04:55:01;13.10;99.90
43858;DHT22;29507;51.284;5.758;2023-08-07T04:57:27;13.10;99.90
43858;DHT22;29507;51.284;5.758;2023-08-07T04:59:52;13.10;99.90
43858;DHT22;29507;51.284;5.758;2023-08-07T05:02:19;13.10;99.90
43858;DHT22;29507;51.284;5.758;2023-08-07T05:04:45;13.10;99.90
43858;DHT22;29507;51.284;5.758;2023-08-07T05:07:11;13.10;99.90
43858;DHT22;29507;51.284;5.758;2023-08-07T05:09:37;13.20;99.90
43858;DHT22;29507;51.284;5.758;2023-08-07T05:12:03;13.10;99.90
43858;DHT22;29507;51.284;5.758;2023-08-07T05:14:29;13.20;99.90
43858;DHT22;29507;51.284;5.758;2023-08-07T05:16:55;13.20;99.90
43858;DHT22;29507;51.284;5.758;2023-08-07T05:19:21;13.20;99.90
43858;DHT22;29507;51.284;5.758;2023-08-07T05:21:47;13.20;99.90
43858;DHT22;29507;51.284;5.758;2023-08-07T05:24:16;13.10;99.90
43858;DHT22;29507;51.284;5.758;2023-08-07T05:26:42;13.10;99.90
43858;DHT22;29507;51.284;5.758;2023-08-07T05:29:07;13.20;99.90
43858;DHT22;29507;51.284;5.758;2023-08-07T05:31:33;13.10;99.90
43858;DHT22;29507;51.284;5.758;2023-08-07T05:33:59;13.20;99.90
43858;DHT22;29507;51.284;5.758;2023-08-07T05:36:25;13.10;99.90
43858;DHT22;29507;51.284;5.758;2023-08-07T05:38:51;13.10;99.90
43858;DHT22;29507;51.284;5.758;2023-08-07T05:41:16;13.10;99.90
43858;DHT22;29507;51.284;5.758;2023-08-07T05:43:42;13.30;99.90
43858;DHT22;29507;51.284;5.758;2023-08-07T05:46:08;13.20;99.90
43858;DHT22;29507;51.284;5.758;2023-08-07T05:48:33;13.20;99.90
43858;DHT22;29507;51.284;5.758;2023-08-07T05:50:59;13.20;99.90
43858;DHT22;29507;51.284;5.758;2023-08-07T05:53:25;13.20;99.90
43858;DHT22;29507;51.284;5.758;2023-08-07T05:55:50;13.20;99.90
43858;DHT22;29507;51.284;5.758;2023-08-07T05:58:16;13.10;99.90
43858;DHT22;29507;51.284;5.758;2023-08-07T06:00:41;13.10;99.90
43858;DHT22;29507;51.284;5.758;2023-08-07T06:03:07;13.00;99.90
43858;DHT22;29507;51.284;5.758;2023-08-07T06:05:34;13.00;99.90
43858;DHT22;29507;51.284;5.758;2023-08-07T06:08:00;13.00;99.90
43858;DHT22;29507;51.284;5.758;2023-08-07T06:10:26;13.00;99.90
43858;DHT22;29507;51.284;5.758;2023-08-07T06:12:52;12.90;99.90
43858;DHT22;29507;51.284;5.758;2023-08-07T06:15:18;12.80;99.90
43858;DHT22;29507;51.284;5.758;2023-08-07T06:17:43;12.90;99.90
43858;DHT22;29507;51.284;5.758;2023-08-07T06:20:09;12.90;99.90
43858;DHT22;29507;51.284;5.758;2023-08-07T06:22:37;13.10;99.90
43858;DHT22;29507;51.284;5.758;2023-08-07T06:25:03;13.20;99.90
43858;DHT22;29507;51.284;5.758;2023-08-07T06:27:31;13.30;99.90
43858;DHT22;29507;51.284;5.758;2023-08-07T06:29:57;13.40;99.90
43858;DHT22;29507;51.284;5.758;2023-08-07T06:32:23;13.40;99.90
43858;DHT22;29507;51.284;5.758;2023-08-07T06:34:48;13.60;99.90
43858;DHT22;29507;51.284;5.758;2023-08-07T06:37:14;13.60;99.90
43858;DHT22;29507;51.284;5.758;2023-08-07T06:39:39;13.70;99.90
43858;DHT22;29507;51.284;5.758;2023-08-07T06:42:05;13.80;99.90
43858;DHT22;29507;51.284;5.758;2023-08-07T06:44:31;13.90;99.90
43858;DHT22;29507;51.284;5.758;2023-08-07T06:46:56;13.90;99.90
43858;DHT22;29507;51.284;5.758;2023-08-07T06:49:22;14.00;99.90
43858;DHT22;29507;51.284;5.758;2023-08-07T06:51:48;14.10;99.90
43858;DHT22;29507;51.284;5.758;2023-08-07T06:54:14;14.20;99.90
43858;DHT22;29507;51.284;5.758;2023-08-07T06:56:39;14.30;99.90
43858;DHT22;29507;51.284;5.758;2023-08-07T06:59:07;14.40;99.90
43858;DHT22;29507;51.284;5.758;2023-08-07T07:01:33;14.40;99.90
43858;DHT22;29507;51.284;5.758;2023-08-07T07:03:59;14.50;99.90
43858;DHT22;29507;51.284;5.758;2023-08-07T07:06:24;14.50;99.90
43858;DHT22;29507;51.284;5.758;2023-08-07T07:08:51;14.60;99.90
43858;DHT22;29507;51.284;5.758;2023-08-07T07:11:21;14.60;99.90
43858;DHT22;29507;51.284;5.758;2023-08-07T07:13:47;14.60;99.90
43858;DHT22;29507;51.284;5.758;2023-08-07T07:16:13;14.60;99.90
43858;DHT22;29507;51.284;5.758;2023-08-07T07:18:39;14.70;99.90
43858;DHT22;29507;51.284;5.758;2023-08-07T07:21:05;14.80;99.90
43858;DHT22;29507;51.284;5.758;2023-08-07T07:23:30;14.90;99.90
43858;DHT22;29507;51.284;5.758;2023-08-07T07:25:56;14.90;99.90
43858;DHT22;29507;51.284;5.758;2023-08-07T07:28:23;15.00;99.90
43858;DHT22;29507;51.284;5.758;2023-08-07T07:30:49;15.00;99.90
43858;DHT22;29507;51.284;5.758;2023-08-07T07:33:16;15.20;99.90
43858;DHT22;29507;51.284;5.758;2023-08-07T07:35:41;15.30;99.90
43858;DHT22;29507;51.284;5.758;2023-08-07T07:38:07;15.50;99.90
43858;DHT22;29507;51.284;5.758;2023-08-07T07:40:34;15.60;99.90
43858;DHT22;29507;51.284;5.758;2023-08-07T07:43:00;15.60;99.90
43858;DHT22;29507;51.284;5.758;2023-08-07T07:45:25;15.70;99.90
43858;DHT22;29507;51.284;5.758;2023-08-07T07:47:51;15.70;99.90
43858;DHT22;29507;51.284;5.758;2023-08-07T07:50:17;15.60;99.90
43858;DHT22;29507;51.284;5.758;2023-08-07T07:52:42;16.00;99.90
43858;DHT22;29507;51.284;5.758;2023-08-07T07:55:09;16.80;99.90
43858;DHT22;29507;51.284;5.758;2023-08-07T07:57:35;17.10;99.90
43858;DHT22;29507;51.284;5.758;2023-08-07T08:00:01;17.10;99.90
43858;DHT22;29507;51.284;5.758;2023-08-07T08:02:28;16.90;99.90
43858;DHT22;29507;51.284;5.758;2023-08-07T08:04:54;16.80;99.90
43858;DHT22;29507;51.284;5.758;2023-08-07T08:07:20;16.80;99.90
43858;DHT22;29507;51.284;5.758;2023-08-07T08:09:46;16.80;99.90
43858;DHT22;29507;51.284;5.758;2023-08-07T08:12:12;16.70;99.90
43858;DHT22;29507;51.284;5.758;2023-08-07T08:14:38;16.60;99.90
43858;DHT22;29507;51.284;5.758;2023-08-07T08:17:04;16.70;99.90
43858;DHT22;29507;51.284;5.758;2023-08-07T08:19:29;16.70;99.90
43858;DHT22;29507;51.284;5.758;2023-08-07T08:21:55;16.70;99.90
43858;DHT22;29507;51.284;5.758;2023-08-07T08:24:20;16.60;99.90
43858;DHT22;29507;51.284;5.758;2023-08-07T08:26:46;16.80;99.90
43858;DHT22;29507;51.284;5.758;2023-08-07T08:29:14;17.00;99.90
43858;DHT22;29507;51.284;5.758;2023-08-07T08:31:40;17.20;99.90
43858;DHT22;29507;51.284;5.758;2023-08-07T08:34:06;17.20;99.90
43858;DHT22;29507;51.284;5.758;2023-08-07T08:36:31;17.50;99.90
43858;DHT22;29507;51.284;5.758;2023-08-07T08:38:57;17.80;99.90
43858;DHT22;29507;51.284;5.758;2023-08-07T08:41:23;17.90;99.90
43858;DHT22;29507;51.284;5.758;2023-08-07T08:43:51;18.00;99.90
43858;DHT22;29507;51.284;5.758;2023-08-07T08:46:20;18.00;99.90
43858;DHT22;29507;51.284;5.758;2023-08-07T08:48:51;18.10;99.90
43858;DHT22;29507;51.284;5.758;2023-08-07T08:51:17;18.20;99.90
43858;DHT22;29507;51.284;5.758;2023-08-07T08:53:46;19.10;99.90
43858;DHT22;29507;51.284;5.758;2023-08-07T08:56:12;19.10;99.90
43858;DHT22;29507;51.284;5.758;2023-08-07T08:58:38;18.80;99.90
43858;DHT22;29507;51.284;5.758;2023-08-07T09:01:05;18.90;99.90
43858;DHT22;29507;51.284;5.758;2023-08-07T09:03:31;19.40;99.90
43858;DHT22;29507;51.284;5.758;2023-08-07T09:05:58;20.10;99.90
43858;DHT22;29507;51.284;5.758;2023-08-07T09:08:27;20.20;99.90
43858;DHT22;29507;51.284;5.758;2023-08-07T09:10:55;20.20;99.90
43858;DHT22;29507;51.284;5.758;2023-08-07T09:13:23;20.10;99.90
43858;DHT22;29507;51.284;5.758;2023-08-07T09:15:50;19.60;99.90
43858;DHT22;29507;51.284;5.758;2023-08-07T09:18:17;19.10;99.90
43858;DHT22;29507;51.284;5.758;2023-08-07T09:20:43;19.20;99.90
43858;DHT22;29507;51.284;5.758;2023-08-07T09:23:09;19.80;99.90
43858;DHT22;29507;51.284;5.758;2023-08-07T09:25:35;20.40;99.90
43858;DHT22;29507;51.284;5.758;2023-08-07T09:28:02;20.00;99.90
43858;DHT22;29507;51.284;5.758;2023-08-07T09:30:32;19.40;99.90
43858;DHT22;29507;51.284;5.758;2023-08-07T09:33:00;19.00;99.90
43858;DHT22;29507;51.284;5.758;2023-08-07T09:35:26;18.60;99.90
43858;DHT22;29507;51.284;5.758;2023-08-07T09:37:52;18.40;99.90
43858;DHT22;29507;51.284;5.758;2023-08-07T09:40:18;18.20;99.90
43858;DHT22;29507;51.284;5.758;2023-08-07T09:42:44;18.60;99.90
43858;DHT22;29507;51.284;5.758;2023-08-07T09:48:20;19.00;99.90
43858;DHT22;29507;51.284;5.758;2023-08-07T09:50:48;18.80;99.90
43858;DHT22;29507;51.284;5.758;2023-08-07T09:53:14;18.80;99.90
43858;DHT22;29507;51.284;5.758;2023-08-07T09:55:39;18.80;99.90
43858;DHT22;29507;51.284;5.758;2023-08-07T09:58:07;18.60;99.90
43858;DHT22;29507;51.284;5.758;2023-08-07T10:00:36;18.40;99.90
43858;DHT22;29507;51.284;5.758;2023-08-07T10:03:03;18.90;99.90
43858;DHT22;29507;51.284;5.758;2023-08-07T10:05:30;19.90;99.90
43858;DHT22;29507;51.284;5.758;2023-08-07T10:07:57;20.60;99.90
43858;DHT22;29507;51.284;5.758;2023-08-07T10:10:23;20.70;97.90
43858;DHT22;29507;51.284;5.758;2023-08-07T10:12:51;21.10;96.90
43858;DHT22;29507;51.284;5.758;2023-08-07T10:15:17;20.20;97.70
43858;DHT22;29507;51.284;5.758;2023-08-07T10:17:43;20.00;99.90
43858;DHT22;29507;51.284;5.758;2023-08-07T10:20:09;20.50;97.80
43858;DHT22;29507;51.284;5.758;2023-08-07T10:22:38;21.40;96.50
43858;DHT22;29507;51.284;5.758;2023-08-07T10:25:06;21.00;96.20
43858;DHT22;29507;51.284;5.758;2023-08-07T10:27:37;20.70;96.20
43858;DHT22;29507;51.284;5.758;2023-08-07T10:30:06;21.20;96.50
43858;DHT22;29507;51.284;5.758;2023-08-07T10:32:32;21.50;95.80
43858;DHT22;29507;51.284;5.758;2023-08-07T10:34:58;21.60;95.50
43858;DHT22;29507;51.284;5.758;2023-08-07T10:37:44;21.40;93.10
43858;DHT22;29507;51.284;5.758;2023-08-07T10:40:11;21.50;93.10
43858;DHT22;29507;51.284;5.758;2023-08-07T10:45:22;21.10;93.80
43858;DHT22;29507;51.284;5.758;2023-08-07T10:48:08;20.40;95.20
43858;DHT22;29507;51.284;5.758;2023-08-07T10:50:57;21.30;95.30
43858;DHT22;29507;51.284;5.758;2023-08-07T10:53:43;22.20;93.80
43858;DHT22;29507;51.284;5.758;2023-08-07T10:56:35;22.90;91.30
43858;DHT22;29507;51.284;5.758;2023-08-07T10:59:10;22.60;90.40
43858;DHT22;29507;51.284;5.758;2023-08-07T11:04:13;24.00;91.60
43858;DHT22;29507;51.284;5.758;2023-08-07T11:06:40;23.70;87.60
43858;DHT22;29507;51.284;5.758;2023-08-07T11:09:08;22.90;87.40
43858;DHT22;29507;51.284;5.758;2023-08-07T11:11:44;23.20;90.60
43858;DHT22;29507;51.284;5.758;2023-08-07T11:14:12;23.10;88.90
43858;DHT22;29507;51.284;5.758;2023-08-07T11:16:39;22.00;90.10
43858;DHT22;29507;51.284;5.758;2023-08-07T11:19:05;21.10;91.50
43858;DHT22;29507;51.284;5.758;2023-08-07T11:21:32;21.00;94.00
43858;DHT22;29507;51.284;5.758;2023-08-07T11:23:58;21.50;92.50
43858;DHT22;29507;51.284;5.758;2023-08-07T11:26:24;22.30;92.00
43858;DHT22;29507;51.284;5.758;2023-08-07T11:28:54;23.20;91.00
43858;DHT22;29507;51.284;5.758;2023-08-07T11:31:21;23.60;89.10
43858;DHT22;29507;51.284;5.758;2023-08-07T11:33:49;23.20;87.60
43858;DHT22;29507;51.284;5.758;2023-08-07T11:36:15;23.20;85.40
43858;DHT22;29507;51.284;5.758;2023-08-07T11:38:43;22.60;86.50
43858;DHT22;29507;51.284;5.758;2023-08-07T11:41:10;22.50;86.00
43858;DHT22;29507;51.284;5.758;2023-08-07T11:43:39;22.20;85.20
43858;DHT22;29507;51.284;5.758;2023-08-07T11:46:09;22.60;85.70
43858;DHT22;29507;51.284;5.758;2023-08-07T11:48:37;22.80;87.20
43858;DHT22;29507;51.284;5.758;2023-08-07T11:51:03;22.70;84.90
43858;DHT22;29507;51.284;5.758;2023-08-07T11:53:32;22.80;85.40
43858;DHT22;29507;51.284;5.758;2023-08-07T11:56:05;23.30;86.60
43858;DHT22;29507;51.284;5.758;2023-08-07T11:58:36;23.70;85.50
43858;DHT22;29507;51.284;5.758;2023-08-07T12:01:06;22.70;87.10
43858;DHT22;29507;51.284;5.758;2023-08-07T12:03:36;22.80;88.50
43858;DHT22;29507;51.284;5.758;2023-08-07T12:06:07;22.80;89.90
43858;DHT22;29507;51.284;5.758;2023-08-07T12:08:37;23.30;90.90
43858;DHT22;29507;51.284;5.758;2023-08-07T12:11:05;23.10;90.60
43858;DHT22;29507;51.284;5.758;2023-08-07T12:13:31;23.00;91.70
43858;DHT22;29507;51.284;5.758;2023-08-07T12:16:01;23.00;91.10
43858;DHT22;29507;51.284;5.758;2023-08-07T12:18:27;23.20;92.00
43858;DHT22;29507;51.284;5.758;2023-08-07T12:21:03;23.50;91.40
43858;DHT22;29507;51.284;5.758;2023-08-07T12:23:35;23.50;91.20
43858;DHT22;29507;51.284;5.758;2023-08-07T12:26:01;23.40;90.90
43858;DHT22;29507;51.284;5.758;2023-08-07T12:28:27;23.40;90.70
43858;DHT22;29507;51.284;5.758;2023-08-07T12:30:53;23.00;88.80
43858;DHT22;29507;51.284;5.758;2023-08-07T12:33:19;22.60;90.50
43858;DHT22;29507;51.284;5.758;2023-08-07T12:35:45;22.00;91.30
43858;DHT22;29507;51.284;5.758;2023-08-07T12:38:11;21.30;92.10
43858;DHT22;29507;51.284;5.758;2023-08-07T12:40:39;20.40;92.80
43858;DHT22;29507;51.284;5.758;2023-08-07T12:43:05;19.90;95.40
43858;DHT22;29507;51.284;5.758;2023-08-07T12:45:31;19.50;97.60
43858;DHT22;29507;51.284;5.758;2023-08-07T12:47:58;19.40;99.40
43858;DHT22;29507;51.284;5.758;2023-08-07T12:50:23;19.40;99.90
43858;DHT22;29507;51.284;5.758;2023-08-07T12:52:49;19.80;99.90
43858;DHT22;29507;51.284;5.758;2023-08-07T12:55:15;20.70;99.90
43858;DHT22;29507;51.284;5.758;2023-08-07T12:57:44;21.40;98.40
43858;DHT22;29507;51.284;5.758;2023-08-07T13:00:11;22.70;97.50
43858;DHT22;29507;51.284;5.758;2023-08-07T13:02:42;23.10;94.30
43858;DHT22;29507;51.284;5.758;2023-08-07T13:05:08;22.70;95.10
43858;DHT22;29507;51.284;5.758;2023-08-07T13:07:36;22.50;94.80
43858;DHT22;29507;51.284;5.758;2023-08-07T13:10:04;22.60;96.00
43858;DHT22;29507;51.284;5.758;2023-08-07T13:12:30;22.80;94.80
43858;DHT22;29507;51.284;5.758;2023-08-07T13:14:59;22.20;95.80
43858;DHT22;29507;51.284;5.758;2023-08-07T13:17:25;22.00;96.10
43858;DHT22;29507;51.284;5.758;2023-08-07T13:19:50;22.10;96.50
43858;DHT22;29507;51.284;5.758;2023-08-07T13:22:16;21.90;95.50
43858;DHT22;29507;51.284;5.758;2023-08-07T13:24:42;21.50;97.50
43858;DHT22;29507;51.284;5.758;2023-08-07T13:27:08;22.30;96.30
43858;DHT22;29507;51.284;5.758;2023-08-07T13:29:34;23.30;95.70
43858;DHT22;29507;51.284;5.758;2023-08-07T13:32:00;23.20;94.60
43858;DHT22;29507;51.284;5.758;2023-08-07T13:34:25;23.30;95.10
43858;DHT22;29507;51.284;5.758;2023-08-07T13:36:51;23.30;92.70
43858;DHT22;29507;51.284;5.758;2023-08-07T13:39:17;23.70;91.80
43858;DHT22;29507;51.284;5.758;2023-08-07T13:41:42;23.50;92.70
43858;DHT22;29507;51.284;5.758;2023-08-07T13:44:08;24.50;91.00
43858;DHT22;29507;51.284;5.758;2023-08-07T13:46:34;24.40;90.40
43858;DHT22;29507;51.284;5.758;2023-08-07T13:49:00;25.10;91.30
43858;DHT22;29507;51.284;5.758;2023-08-07T13:51:25;24.90;90.70
43858;DHT22;29507;51.284;5.758;2023-08-07T13:53:51;23.80;91.90
43858;DHT22;29507;51.284;5.758;2023-08-07T13:56:18;22.60;94.20
43858;DHT22;29507;51.284;5.758;2023-08-07T13:58:43;21.80;95.80
43858;DHT22;29507;51.284;5.758;2023-08-07T14:01:09;22.20;96.70
43858;DHT22;29507;51.284;5.758;2023-08-07T14:03:35;21.70;97.60
43858;DHT22;29507;51.284;5.758;2023-08-07T14:06:01;22.00;99.00
43858;DHT22;29507;51.284;5.758;2023-08-07T14:08:26;21.80;98.30
43858;DHT22;29507;51.284;5.758;2023-08-07T14:10:52;20.90;99.90
43858;DHT22;29507;51.284;5.758;2023-08-07T14:13:18;20.70;99.90
43858;DHT22;29507;51.284;5.758;2023-08-07T14:15:43;20.60;99.90
43858;DHT22;29507;51.284;5.758;2023-08-07T14:18:09;20.60;99.90
43858;DHT22;29507;51.284;5.758;2023-08-07T14:20:36;20.60;99.90
43858;DHT22;29507;51.284;5.758;2023-08-07T14:23:02;21.10;99.90
43858;DHT22;29507;51.284;5.758;2023-08-07T14:25:27;22.20;99.90
43858;DHT22;29507;51.284;5.758;2023-08-07T14:27:53;23.70;99.90
43858;DHT22;29507;51.284;5.758;2023-08-07T14:30:19;24.30;98.30
43858;DHT22;29507;51.284;5.758;2023-08-07T14:32:46;24.20;96.40
43858;DHT22;29507;51.284;5.758;2023-08-07T14:35:13;23.70;97.20
43858;DHT22;29507;51.284;5.758;2023-08-07T14:37:39;23.60;93.60
43858;DHT22;29507;51.284;5.758;2023-08-07T14:40:05;22.50;91.90
43858;DHT22;29507;51.284;5.758;2023-08-07T14:42:32;22.00;92.10
43858;DHT22;29507;51.284;5.758;2023-08-07T14:44:57;21.60;93.40
43858;DHT22;29507;51.284;5.758;2023-08-07T14:47:23;21.30;93.80
43858;DHT22;29507;51.284;5.758;2023-08-07T14:49:50;21.40;94.80
43858;DHT22;29507;51.284;5.758;2023-08-07T14:52:16;21.40;95.00
43858;DHT22;29507;51.284;5.758;2023-08-07T14:54:42;22.00;93.10
43858;DHT22;29507;51.284;5.758;2023-08-07T14:57:07;21.70;92.60
43858;DHT22;29507;51.284;5.758;2023-08-07T14:59:33;21.50;93.90
43858;DHT22;29507;51.284;5.758;2023-08-07T15:01:59;21.80;94.20
43858;DHT22;29507;51.284;5.758;2023-08-07T15:04:24;22.20;93.60
43858;DHT22;29507;51.284;5.758;2023-08-07T15:06:50;22.00;92.70
43858;DHT22;29507;51.284;5.758;2023-08-07T15:09:16;21.50;94.20
43858;DHT22;29507;51.284;5.758;2023-08-07T15:11:47;21.20;93.40
43858;DHT22;29507;51.284;5.758;2023-08-07T15:14:13;20.70;94.30
43858;DHT22;29507;51.284;5.758;2023-08-07T15:16:39;20.40;95.30
43858;DHT22;29507;51.284;5.758;2023-08-07T15:19:04;20.20;96.20
43858;DHT22;29507;51.284;5.758;2023-08-07T15:21:31;20.20;96.20
43858;DHT22;29507;51.284;5.758;2023-08-07T15:23:56;20.10;97.10
43858;DHT22;29507;51.284;5.758;2023-08-07T15:26:22;19.90;98.50
43858;DHT22;29507;51.284;5.758;2023-08-07T15:28:48;19.80;98.00
43858;DHT22;29507;51.284;5.758;2023-08-07T15:31:14;19.60;98.40
43858;DHT22;29507;51.284;5.758;2023-08-07T15:33:39;19.40;99.00
43858;DHT22;29507;51.284;5.758;2023-08-07T15:36:05;19.40;99.40
43858;DHT22;29507;51.284;5.758;2023-08-07T15:38:31;19.70;99.90
43858;DHT22;29507;51.284;5.758;2023-08-07T15:40:57;19.90;99.40
43858;DHT22;29507;51.284;5.758;2023-08-07T15:43:23;20.20;99.30